Search for airport 
image banner adimage banner adimage banner ad
image banner ad

42L - Naa Long Beach Port Helistop

Located in Long Beach, United States

ICAO - 42L, IATA -

Data provided by Airmate  

General information

Coordinates: N33°45'53" W118°11'58"
Elevation is 15 feet MSL.
Magnetic variation is 14° East
View others Airports in California

Operational data

Special qualification required
Current time UTC:
Current local time:
METAR: KLGB 240853Z AUTO 31005KT 10SM CLR 17/14 A2999 RMK AO2 SLP155 T01720139 58004
TAF: KLGB 240814Z 2408/2506 30005KT P6SM SKC FM240930 VRB03KT P6SM BKN010 FM241100 VRB03KT P6SM BKN013 FM241600 19006KT P6SM FEW015 FM242100 29012KT P6SM SKC
View NOTAMs / SUP AIP / TFR affecting this airport [VIEW]
Communications frequencies: [VIEW]

Runways:

Airport contact information

Address: Long Beach United States

Satellite view of 42L